Terminal Aerodrome Forecast
Issued by NWS

Home | Current Version | Previous Version | Text Only | Print | Product List | Glossary On
Versions: 1 2 3 4 5 6 7 8 9 10 11 12 13 14 15 16 17
000
FTUS41 KGYX 231120
TAFRKD
TAF
KRKD 231120Z 2312/2412 VRB03KT P6SM SCT040 OVC070
     FM231500 06008KT P6SM OVC050
     FM231800 09008KT P6SM BKN050 OVC100
      AMD LTD TO CLD VIS AND WIND=

USA.gov is the U.S. government's official web portal to all federal, state and local government web resources and services.